createdAt,value
2022-10-30T00:00:47.880Z,100776.61
2022-10-30T00:03:19.161Z,100778.70
2022-10-30T00:05:49.319Z,100774.58
2022-10-30T00:08:22.459Z,100774.89
2022-10-30T00:10:53.134Z,100765.21
2022-10-30T00:13:23.876Z,100764.13
2022-10-30T00:15:55.147Z,100762.43
2022-10-30T00:18:23.955Z,100763.95
2022-10-30T00:20:54.311Z,100769.89
2022-10-30T00:23:24.823Z,100768.27
2022-10-30T00:25:55.227Z,100766.02
2022-10-30T00:28:25.705Z,100768.25
2022-10-30T00:30:59.373Z,100769.72
2022-10-30T00:33:29.757Z,100769.09
2022-10-30T00:36:00.861Z,100767.14
2022-10-30T00:38:31.272Z,100759.48
2022-10-30T00:41:01.665Z,100762.08
2022-10-30T00:43:35.215Z,100758.77
2022-10-30T00:46:15.067Z,100757.54
2022-10-30T00:48:49.058Z,100754.03
2022-10-30T00:51:21.216Z,100753.27
2022-10-30T00:53:53.631Z,100746.96
2022-10-30T00:56:25.404Z,100740.79
2022-10-30T00:58:59.839Z,100741.50
2022-10-30T01:01:34.803Z,100742.52
2022-10-30T01:04:07.128Z,100749.11
2022-10-30T01:06:41.116Z,100750.38
2022-10-30T01:09:11.879Z,100746.84
2022-10-30T01:11:42.322Z,100746.30
2022-10-30T01:14:15.168Z,100744.98
2022-10-30T01:17:09.962Z,100742.08
2022-10-30T01:19:49.899Z,100737.64
2022-10-30T01:22:38.674Z,100739.29
2022-10-30T01:25:24.112Z,100743.95
2022-10-30T01:28:12.863Z,100741.30
2022-10-30T01:30:49.491Z,100741.86
2022-10-30T01:33:42.996Z,100737.48
2022-10-30T01:36:20.395Z,100739.31
2022-10-30T01:38:55.305Z,100731.38
2022-10-30T01:41:25.725Z,100734.34
2022-10-30T01:44:01.459Z,100738.72
2022-10-30T01:46:45.927Z,100732.23
2022-10-30T01:49:32.683Z,100730.08
2022-10-30T01:52:12.767Z,100729.95
2022-10-30T01:54:54.040Z,100726.92
2022-10-30T01:57:38.612Z,100728.50
2022-10-30T02:00:14.629Z,100723.90
2022-10-30T02:02:49.933Z,100725.20
2022-10-30T02:05:31.205Z,100727.71
2022-10-30T02:08:02.486Z,100720.75
2022-10-30T02:10:38.017Z,100720.55
2022-10-30T02:13:08.442Z,100714.52
2022-10-30T02:15:39.771Z,100710.17
2022-10-30T02:18:09.140Z,100711.65
2022-10-30T02:20:39.717Z,100712.77
2022-10-30T02:23:13.563Z,100717.11
2022-10-30T02:25:44.056Z,100717.39
2022-10-30T02:28:14.717Z,100723.30
2022-10-30T02:30:45.191Z,100721.29
2022-10-30T02:33:15.629Z,100719.15
2022-10-30T02:35:45.985Z,100724.80
2022-10-30T02:38:16.318Z,100725.83
2022-10-30T02:40:47.166Z,100728.11
2022-10-30T02:43:17.488Z,100725.09
2022-10-30T02:45:52.853Z,100725.19
2022-10-30T02:48:23.550Z,100724.36
2022-10-30T02:50:53.935Z,100719.42
2022-10-30T02:53:24.471Z,100719.48
2022-10-30T02:55:54.841Z,100722.20
2022-10-30T02:58:24.591Z,100720.02
2022-10-30T03:00:54.931Z,100722.80
2022-10-30T03:03:25.502Z,100726.98
2022-10-30T03:05:55.950Z,100726.50
2022-10-30T03:08:26.517Z,100724.38
2022-10-30T03:11:02.229Z,100726.70
2022-10-30T03:13:34.417Z,100732.14
2022-10-30T03:16:08.489Z,100726.25
2022-10-30T03:18:39.469Z,100731.16
2022-10-30T03:21:15.703Z,100728.98
2022-10-30T03:23:50.430Z,100732.74
2022-10-30T03:26:22.994Z,100730.85
2022-10-30T03:28:55.460Z,100729.92
2022-10-30T03:31:25.935Z,100729.06
2022-10-30T03:34:11.377Z,100728.79
2022-10-30T03:36:43.058Z,100728.88
2022-10-30T03:39:13.737Z,100729.59
2022-10-30T03:41:46.460Z,100730.48
2022-10-30T03:44:16.797Z,100729.31
2022-10-30T03:46:47.455Z,100725.50
2022-10-30T03:49:32.044Z,100727.52
2022-10-30T03:52:03.001Z,100727.41
2022-10-30T03:54:33.863Z,100723.73
2022-10-30T03:57:04.360Z,100724.52
2022-10-30T03:59:42.799Z,100725.09
2022-10-30T04:02:32.037Z,100723.20
2022-10-30T04:05:02.481Z,100725.92
2022-10-30T04:07:32.959Z,100727.38
2022-10-30T04:10:03.460Z,100722.70
2022-10-30T04:12:33.883Z,100726.33
2022-10-30T04:15:04.361Z,100731.33
2022-10-30T04:17:34.764Z,100731.36
2022-10-30T04:20:09.138Z,100730.33
2022-10-30T04:22:39.496Z,100730.02
2022-10-30T04:25:11.103Z,100729.15
2022-10-30T04:27:43.860Z,100730.01
2022-10-30T04:30:15.712Z,100732.73
2022-10-30T04:32:50.219Z,100735.88
2022-10-30T04:35:23.053Z,100734.25
2022-10-30T04:37:59.213Z,100735.40
2022-10-30T04:40:31.276Z,100738.44
2022-10-30T04:43:04.985Z,100736.55
2022-10-30T04:45:37.043Z,100736.36
2022-10-30T04:48:07.959Z,100740.12
2022-10-30T04:50:38.918Z,100739.19
2022-10-30T04:53:14.791Z,100737.76
2022-10-30T04:55:46.448Z,100737.59
2022-10-30T04:58:15.837Z,100735.04
2022-10-30T05:00:47.365Z,100731.33
2022-10-30T05:03:22.941Z,100737.15
2022-10-30T05:05:58.998Z,100734.66
2022-10-30T05:08:29.581Z,100733.45
2022-10-30T05:11:00.448Z,100732.55
2022-10-30T05:13:32.363Z,100732.33
2022-10-30T05:16:02.850Z,100733.38
2022-10-30T05:18:33.194Z,100731.27
2022-10-30T05:21:06.224Z,100730.94
2022-10-30T05:23:36.596Z,100731.30
2022-10-30T05:26:07.681Z,100730.02
2022-10-30T05:28:38.353Z,100728.52
2022-10-30T05:31:08.976Z,100728.01
2022-10-30T05:33:59.593Z,100726.73
2022-10-30T05:36:32.371Z,100729.34
2022-10-30T05:39:03.066Z,100734.91
2022-10-30T05:41:39.284Z,100738.24
2022-10-30T05:44:09.677Z,100741.09
2022-10-30T05:46:40.949Z,100741.71
2022-10-30T05:49:32.076Z,100743.77
2022-10-30T05:52:02.656Z,100740.95
2022-10-30T05:54:33.914Z,100739.01
2022-10-30T05:57:13.720Z,100734.28
2022-10-30T05:59:44.341Z,100734.63
2022-10-30T06:02:14.765Z,100735.91
2022-10-30T06:04:45.716Z,100735.45
2022-10-30T06:07:17.203Z,100733.90
2022-10-30T06:09:47.587Z,100732.60
2022-10-30T06:12:39.692Z,100735.11
2022-10-30T06:15:18.607Z,100738.31
2022-10-30T06:17:49.678Z,100742.76
2022-10-30T06:20:40.365Z,100742.14
2022-10-30T06:23:29.202Z,100743.25
2022-10-30T06:26:05.438Z,100751.14
2022-10-30T06:28:59.447Z,100752.52
2022-10-30T06:31:29.788Z,100752.84
2022-10-30T06:34:00.349Z,100754.55
2022-10-30T06:36:31.772Z,100757.13
2022-10-30T06:39:19.719Z,100755.00
2022-10-30T06:42:05.217Z,100759.31
2022-10-30T06:44:56.764Z,100765.16
2022-10-30T06:47:27.251Z,100764.16
2022-10-30T06:49:57.651Z,100766.31
2022-10-30T06:52:28.188Z,100769.85
2022-10-30T06:54:58.918Z,100771.61
2022-10-30T06:57:58.992Z,100767.18
2022-10-30T07:00:47.199Z,100762.90
2022-10-30T07:03:20.827Z,100761.08
2022-10-30T07:05:52.483Z,100763.95
2022-10-30T07:08:22.847Z,100762.89
2022-10-30T07:10:53.319Z,100763.23
2022-10-30T07:13:48.238Z,100761.85
2022-10-30T07:16:51.211Z,100763.13
2022-10-30T07:19:21.659Z,100765.33
2022-10-30T07:21:52.295Z,100763.91
2022-10-30T07:24:22.974Z,100767.70
2022-10-30T07:27:13.752Z,100769.20
2022-10-30T07:30:04.595Z,100764.98
2022-10-30T07:32:58.176Z,100767.96
2022-10-30T07:35:47.814Z,100772.42
2022-10-30T07:38:32.458Z,100774.95
2022-10-30T07:41:13.723Z,100773.60
2022-10-30T07:43:53.186Z,100782.72
2022-10-30T07:46:39.003Z,100782.13
2022-10-30T07:49:29.739Z,100784.45
2022-10-30T07:52:11.856Z,100783.27
2022-10-30T07:54:47.828Z,100781.25
2022-10-30T07:57:39.750Z,100780.91
2022-10-30T08:00:27.286Z,100787.33
2022-10-30T08:03:09.795Z,100792.36
2022-10-30T08:05:47.616Z,100791.77
2022-10-30T08:08:24.717Z,100791.82
2022-10-30T08:11:03.997Z,100791.90
2022-10-30T08:13:34.618Z,100790.76
2022-10-30T08:16:05.197Z,100789.52
2022-10-30T08:18:38.738Z,100791.86
2022-10-30T08:21:09.388Z,100791.23
2022-10-30T08:23:39.922Z,100786.73
2022-10-30T08:26:14.998Z,100783.88
2022-10-30T08:28:45.351Z,100788.09
2022-10-30T08:31:15.781Z,100790.88
2022-10-30T08:34:05.340Z,100789.05
2022-10-30T08:36:52.935Z,100793.29
2022-10-30T08:39:23.417Z,100792.73
2022-10-30T08:42:03.459Z,100792.06
2022-10-30T08:44:40.365Z,100794.08
2022-10-30T08:47:19.939Z,100790.92
2022-10-30T08:49:50.578Z,100792.67
2022-10-30T08:52:23.512Z,100792.48
2022-10-30T08:54:58.257Z,100791.54
2022-10-30T08:57:29.881Z,100794.94
2022-10-30T09:00:00.928Z,100794.32
2022-10-30T09:03:03.941Z,100790.03
2022-10-30T09:05:53.032Z,100786.69
2022-10-30T09:08:52.358Z,100777.71
2022-10-30T09:11:43.957Z,100773.00
2022-10-30T09:14:15.666Z,100771.60
2022-10-30T09:16:46.189Z,100766.20
2022-10-30T09:19:18.990Z,100763.42
2022-10-30T09:21:49.938Z,100762.19
2022-10-30T09:24:20.322Z,100759.07
2022-10-30T09:26:53.657Z,100760.52
2022-10-30T09:29:29.299Z,100756.68
2022-10-30T09:32:10.466Z,100751.60
2022-10-30T09:35:04.574Z,100758.09
2022-10-30T09:37:40.935Z,100751.48
2022-10-30T09:40:24.684Z,100753.98
2022-10-30T09:43:02.360Z,100754.87
2022-10-30T09:46:05.917Z,100754.61
2022-10-30T09:48:59.409Z,100755.52
2022-10-30T09:52:01.402Z,100762.06
2022-10-30T09:54:38.146Z,100762.55
2022-10-30T09:57:16.982Z,100759.29
2022-10-30T10:00:03.462Z,100758.45
2022-10-30T10:02:38.243Z,100762.77
2022-10-30T10:05:20.426Z,100769.81
2022-10-30T10:08:15.584Z,100766.17
2022-10-30T10:11:09.841Z,100769.48
2022-10-30T10:13:46.665Z,100769.86
2022-10-30T10:16:20.913Z,100773.92
2022-10-30T10:18:59.633Z,100767.38
2022-10-30T10:21:34.132Z,100764.60
2022-10-30T10:24:18.259Z,100769.27
2022-10-30T10:26:57.461Z,100758.06
2022-10-30T10:29:50.740Z,100760.27
2022-10-30T10:32:46.016Z,100756.29
2022-10-30T10:35:44.604Z,100755.90
2022-10-30T10:38:26.150Z,100755.19
2022-10-30T10:41:09.335Z,100753.13
2022-10-30T10:43:59.710Z,100755.39
2022-10-30T10:46:44.855Z,100747.98
2022-10-30T10:49:40.180Z,100753.11
2022-10-30T10:52:15.749Z,100750.60
2022-10-30T10:54:50.528Z,100746.02
2022-10-30T10:57:28.346Z,100747.11
2022-10-30T11:00:03.679Z,100750.17
2022-10-30T11:02:41.338Z,100746.52
2022-10-30T11:05:25.658Z,100750.54
2022-10-30T11:07:59.457Z,100747.77
2022-10-30T11:10:30.340Z,100747.64
2022-10-30T11:13:02.791Z,100740.80
2022-10-30T11:15:41.169Z,100736.61
2022-10-30T11:18:14.654Z,100734.45
2022-10-30T11:20:52.707Z,100733.50
2022-10-30T11:23:39.997Z,100730.55
2022-10-30T11:26:31.875Z,100728.07
2022-10-30T11:29:07.197Z,100728.64
2022-10-30T11:31:40.533Z,100726.65
2022-10-30T11:34:25.814Z,100723.67
2022-10-30T11:36:56.942Z,100727.11
2022-10-30T11:39:27.115Z,100724.29
2022-10-30T11:42:04.373Z,100726.13
2022-10-30T11:44:38.992Z,100723.08
2022-10-30T11:47:11.443Z,100718.00
2022-10-30T11:49:47.994Z,100717.57
2022-10-30T11:52:22.341Z,100710.63
2022-10-30T11:54:55.912Z,100710.14
2022-10-30T11:57:38.727Z,100709.75
2022-10-30T12:00:18.212Z,100711.64
2022-10-30T12:02:52.427Z,100706.66
2022-10-30T12:05:44.849Z,100703.38
2022-10-30T12:08:22.508Z,100701.98
2022-10-30T12:11:03.846Z,100702.44
2022-10-30T12:13:39.972Z,100699.56
2022-10-30T12:16:19.024Z,100697.42
2022-10-30T12:19:02.598Z,100691.58
2022-10-30T12:21:37.805Z,100689.94
2022-10-30T12:24:17.345Z,100680.67
2022-10-30T12:26:52.230Z,100681.64
2022-10-30T12:29:41.732Z,100680.06
2022-10-30T12:32:19.703Z,100676.52
2022-10-30T12:34:57.585Z,100667.42
2022-10-30T12:37:33.458Z,100667.93
2022-10-30T12:40:11.706Z,100664.89
2022-10-30T12:42:46.682Z,100667.77
2022-10-30T12:45:21.603Z,100667.14
2022-10-30T12:47:57.454Z,100666.77
2022-10-30T12:50:33.673Z,100661.43
2022-10-30T12:53:15.372Z,100658.45
2022-10-30T12:55:50.500Z,100655.24
2022-10-30T12:58:28.938Z,100654.44
2022-10-30T13:01:08.147Z,100651.66
2022-10-30T13:03:42.881Z,100649.73
2022-10-30T13:06:17.591Z,100647.95
2022-10-30T13:09:00.467Z,100647.35
2022-10-30T13:11:41.894Z,100650.69
2022-10-30T13:14:17.679Z,100648.38
2022-10-30T13:16:48.659Z,100643.27
2022-10-30T13:19:19.188Z,100641.33
2022-10-30T13:22:00.853Z,100639.98
2022-10-30T13:24:43.910Z,100641.13
2022-10-30T13:27:18.846Z,100638.01
2022-10-30T13:29:55.704Z,100640.66
2022-10-30T13:32:40.048Z,100643.42
2022-10-30T13:35:25.024Z,100640.57
2022-10-30T13:38:01.698Z,100641.73
2022-10-30T13:40:41.625Z,100638.41
2022-10-30T13:43:24.581Z,100643.60
2022-10-30T13:46:14.038Z,100645.92
2022-10-30T13:48:59.482Z,100645.79
2022-10-30T13:51:44.560Z,100641.72
2022-10-30T13:54:22.247Z,100638.14
2022-10-30T13:56:55.833Z,100639.63
2022-10-30T13:59:41.518Z,100639.58
2022-10-30T14:02:26.363Z,100641.39
2022-10-30T14:05:02.614Z,100636.95
2022-10-30T14:07:39.506Z,100638.59
2022-10-30T14:10:17.546Z,100640.02
2022-10-30T14:12:53.080Z,100644.10
2022-10-30T14:15:32.631Z,100646.97
2022-10-30T14:18:26.591Z,100643.14
2022-10-30T14:20:59.142Z,100647.39
2022-10-30T14:23:35.406Z,100649.51
2022-10-30T14:26:22.995Z,100646.30
2022-10-30T14:28:57.429Z,100648.84
2022-10-30T14:31:38.169Z,100648.75
2022-10-30T14:34:43.229Z,100651.02
2022-10-30T14:37:14.140Z,100649.93
2022-10-30T14:39:43.783Z,100657.35
2022-10-30T14:42:21.926Z,100653.28
2022-10-30T14:45:03.810Z,100652.25
2022-10-30T14:47:56.542Z,100654.48
2022-10-30T14:50:42.299Z,100658.09
2022-10-30T14:53:28.532Z,100650.12
2022-10-30T14:56:06.268Z,100656.84
2022-10-30T14:58:38.496Z,100654.36
2022-10-30T15:01:33.120Z,100645.10
2022-10-30T15:04:15.888Z,100648.14
2022-10-30T15:07:04.195Z,100649.98
2022-10-30T15:09:46.925Z,100646.96
2022-10-30T15:12:40.756Z,100649.17
2022-10-30T15:15:16.864Z,100648.30
2022-10-30T15:17:50.670Z,100647.90
2022-10-30T15:20:23.665Z,100646.93
2022-10-30T15:22:57.556Z,100643.80
2022-10-30T15:25:38.020Z,100639.11
2022-10-30T15:28:14.895Z,100640.94
2022-10-30T15:31:01.164Z,100642.05
2022-10-30T15:33:32.974Z,100642.31
2022-10-30T15:36:03.552Z,100645.04
2022-10-30T15:38:34.153Z,100647.61
2022-10-30T15:41:05.529Z,100647.19
2022-10-30T15:43:39.820Z,100649.62
2022-10-30T15:46:13.059Z,100648.09
2022-10-30T15:48:47.986Z,100648.75
2022-10-30T15:51:23.126Z,100644.58
2022-10-30T15:53:57.311Z,100644.02
2022-10-30T15:56:32.906Z,100644.20
2022-10-30T15:59:07.158Z,100647.39
2022-10-30T16:01:45.919Z,100646.67
2022-10-30T16:04:19.289Z,100647.55
2022-10-30T16:06:54.759Z,100647.13
2022-10-30T16:09:26.320Z,100642.86
2022-10-30T16:12:00.222Z,100646.02
2022-10-30T16:14:32.928Z,100647.75
2022-10-30T16:17:03.820Z,100643.61
2022-10-30T16:19:46.960Z,100642.41
2022-10-30T16:22:24.829Z,100645.08
2022-10-30T16:24:56.687Z,100652.98
2022-10-30T16:27:27.863Z,100655.27
2022-10-30T16:30:00.942Z,100651.67
2022-10-30T16:32:32.876Z,100653.38
2022-10-30T16:35:05.419Z,100652.35
2022-10-30T16:37:39.309Z,100649.69
2022-10-30T16:40:15.964Z,100648.71
2022-10-30T16:42:55.240Z,100650.44
2022-10-30T16:46:11.894Z,100655.59
2022-10-30T16:48:46.147Z,100659.48
2022-10-30T16:51:19.135Z,100663.69
2022-10-30T16:53:52.217Z,100668.34
2022-10-30T16:56:25.815Z,100666.52
2022-10-30T16:59:07.134Z,100666.90
2022-10-30T17:01:38.267Z,100671.08
2022-10-30T17:04:07.667Z,100682.02
2022-10-30T17:06:43.493Z,100683.77
2022-10-30T17:09:25.851Z,100685.06
2022-10-30T17:12:13.653Z,100687.95
2022-10-30T17:15:04.227Z,100694.10
2022-10-30T17:17:37.404Z,100698.20
2022-10-30T17:20:15.104Z,100708.81
2022-10-30T17:22:47.574Z,100715.36
2022-10-30T17:25:33.656Z,100722.81
2022-10-30T17:28:04.413Z,100729.45
2022-10-30T17:30:39.276Z,100736.44
2022-10-30T17:33:36.267Z,100741.94
2022-10-30T17:36:08.196Z,100752.98
2022-10-30T17:38:38.560Z,100757.20
2022-10-30T17:41:14.561Z,100756.41
2022-10-30T17:43:53.080Z,100758.27
2022-10-30T17:46:24.052Z,100760.77
2022-10-30T17:48:54.838Z,100763.53
2022-10-30T17:51:25.254Z,100770.73
2022-10-30T17:53:55.613Z,100772.05
2022-10-30T17:56:29.312Z,100773.66
2022-10-30T17:58:59.787Z,100776.73
2022-10-30T18:01:30.391Z,100776.42
2022-10-30T18:04:00.805Z,100784.00
2022-10-30T18:06:31.521Z,100783.94
2022-10-30T18:09:01.894Z,100787.27
2022-10-30T18:11:32.347Z,100789.98
2022-10-30T18:14:02.798Z,100789.98
2022-10-30T18:16:36.056Z,100789.95
2022-10-30T18:19:10.318Z,100790.80
2022-10-30T18:21:41.343Z,100790.22
2022-10-30T18:24:14.788Z,100792.77
2022-10-30T18:26:45.557Z,100797.25
2022-10-30T18:29:16.114Z,100802.05
2022-10-30T18:31:46.934Z,100804.30
2022-10-30T18:34:21.343Z,100805.31
2022-10-30T18:36:52.190Z,100803.88
2022-10-30T18:39:22.620Z,100807.10
2022-10-30T18:41:53.705Z,100807.86
2022-10-30T18:44:24.073Z,100803.94
2022-10-30T18:47:03.273Z,100803.35
2022-10-30T18:49:34.460Z,100807.72
2022-10-30T18:52:05.123Z,100813.45
2022-10-30T18:54:35.541Z,100818.31
2022-10-30T18:57:06.598Z,100824.61
2022-10-30T18:59:39.948Z,100822.27
2022-10-30T19:02:21.685Z,100822.14
2022-10-30T19:04:52.423Z,100822.63
2022-10-30T19:07:22.874Z,100822.89
2022-10-30T19:09:53.385Z,100817.75
2022-10-30T19:12:23.951Z,100818.34
2022-10-30T19:15:01.507Z,100821.23
2022-10-30T19:17:31.981Z,100819.09
2022-10-30T19:20:02.360Z,100825.11
2022-10-30T19:22:33.034Z,100828.69
2022-10-30T19:25:08.012Z,100832.47
2022-10-30T19:27:38.769Z,100830.41
2022-10-30T19:30:11.865Z,100830.91
2022-10-30T19:32:42.536Z,100828.82
2022-10-30T19:35:14.520Z,100837.06
2022-10-30T19:37:45.755Z,100837.82
2022-10-30T19:40:23.945Z,100840.13
2022-10-30T19:42:55.372Z,100842.23
2022-10-30T19:45:25.355Z,100840.36
2022-10-30T19:47:57.686Z,100836.87
2022-10-30T19:50:30.613Z,100842.55
2022-10-30T19:53:02.808Z,100847.27
2022-10-30T19:55:36.216Z,100851.96
2022-10-30T19:58:08.047Z,100852.44
2022-10-30T20:00:40.400Z,100852.73
2022-10-30T20:03:13.451Z,100852.45
2022-10-30T20:05:47.080Z,100854.88
2022-10-30T20:08:19.199Z,100853.06
2022-10-30T20:10:54.319Z,100852.58
2022-10-30T20:13:25.968Z,100848.94
2022-10-30T20:15:57.749Z,100850.81
2022-10-30T20:18:31.526Z,100852.92
2022-10-30T20:21:03.502Z,100852.67
2022-10-30T20:23:34.347Z,100854.73
2022-10-30T20:26:08.229Z,100854.67
2022-10-30T20:28:41.525Z,100858.58
2022-10-30T20:31:13.573Z,100858.59
2022-10-30T20:33:44.258Z,100862.56
2022-10-30T20:36:15.716Z,100859.90
2022-10-30T20:38:46.181Z,100857.77
2022-10-30T20:41:24.228Z,100867.17
2022-10-30T20:43:55.147Z,100868.80
2022-10-30T20:46:25.495Z,100869.89
2022-10-30T20:49:01.289Z,100864.20
2022-10-30T20:51:37.832Z,100869.31
2022-10-30T20:54:08.490Z,100868.62
2022-10-30T20:56:38.978Z,100874.45
2022-10-30T20:59:09.571Z,100875.58
2022-10-30T21:01:40.240Z,100875.79
2022-10-30T21:04:11.008Z,100880.77
2022-10-30T21:06:41.578Z,100878.39
2022-10-30T21:09:11.950Z,100880.60
2022-10-30T21:11:42.802Z,100880.75
2022-10-30T21:14:13.276Z,100882.86
2022-10-30T21:16:43.569Z,100885.68
2022-10-30T21:19:13.952Z,100883.05
2022-10-30T21:21:44.416Z,100888.80
2022-10-30T21:24:15.226Z,100886.66
2022-10-30T21:26:45.654Z,100888.38
2022-10-30T21:29:16.362Z,100888.55
2022-10-30T21:31:46.859Z,100885.89
2022-10-30T21:34:17.969Z,100884.40
2022-10-30T21:36:48.541Z,100887.77
2022-10-30T21:39:18.902Z,100887.62
2022-10-30T21:41:49.441Z,100888.25
2022-10-30T21:44:19.949Z,100891.08
2022-10-30T21:46:52.096Z,100891.59
2022-10-30T21:49:22.569Z,100886.48
2022-10-30T21:51:52.952Z,100886.77
2022-10-30T21:54:23.632Z,100885.46
2022-10-30T21:56:54.101Z,100885.85
2022-10-30T21:59:24.803Z,100885.38
2022-10-30T22:01:55.175Z,100882.19
2022-10-30T22:04:26.094Z,100879.40
2022-10-30T22:06:56.577Z,100880.16
2022-10-30T22:09:26.908Z,100880.73
2022-10-30T22:11:57.329Z,100877.95
2022-10-30T22:14:28.515Z,100883.63
2022-10-30T22:16:58.860Z,100881.77
2022-10-30T22:19:29.250Z,100888.83
2022-10-30T22:21:59.717Z,100889.67
2022-10-30T22:24:30.175Z,100888.55
2022-10-30T22:27:00.603Z,100885.29
2022-10-30T22:29:30.879Z,100891.35
2022-10-30T22:32:01.396Z,100887.67
2022-10-30T22:34:31.813Z,100886.04
2022-10-30T22:37:02.301Z,100892.27
2022-10-30T22:39:32.760Z,100889.14
2022-10-30T22:42:03.169Z,100888.81
2022-10-30T22:44:33.404Z,100890.57
2022-10-30T22:47:03.806Z,100894.40
2022-10-30T22:49:34.171Z,100893.85
2022-10-30T22:52:04.804Z,100895.23
2022-10-30T22:54:35.173Z,100890.05
2022-10-30T22:57:05.683Z,100892.34
2022-10-30T22:59:36.173Z,100892.99
2022-10-30T23:02:06.739Z,100891.56
2022-10-30T23:04:37.365Z,100891.06
2022-10-30T23:07:07.733Z,100892.16
2022-10-30T23:09:38.271Z,100892.52
2022-10-30T23:12:09.056Z,100891.27
2022-10-30T23:14:39.389Z,100890.41
2022-10-30T23:17:09.783Z,100884.96
2022-10-30T23:19:40.227Z,100885.48
2022-10-30T23:22:10.545Z,100882.77
2022-10-30T23:24:41.076Z,100882.15
2022-10-30T23:27:11.295Z,100876.08
2022-10-30T23:29:41.560Z,100878.45
2022-10-30T23:32:11.912Z,100880.45
2022-10-30T23:34:42.193Z,100883.10
2022-10-30T23:37:12.511Z,100879.39
2022-10-30T23:39:42.939Z,100880.21
2022-10-30T23:42:13.238Z,100883.08
2022-10-30T23:44:43.533Z,100881.21
2022-10-30T23:47:13.805Z,100882.11
2022-10-30T23:49:44.295Z,100881.84
2022-10-30T23:52:14.621Z,100885.56
2022-10-30T23:54:45.089Z,100884.70
2022-10-30T23:57:15.884Z,100888.61
2022-10-30T23:59:47.035Z,100886.60
